Tiempo atmosférico en la estación meteorológica de Seira, Huesca (825 m.)



Fecha
DESCASC
Temp. máxima en grados centígrados (hora)
DESCASC
Temp. mínima en grados centígrados (hora)
DESCASC
Temp. media en grados centígrados
DESCASC
Racha de viento máxima en m/sg (hora)
DESCASC
Velocidad máxima media en intervalos de 10 minutos(hora)
DESCASC
Precipitaciones diarias en mm
DESCASC
Precipitaciones de 00:00 a 06:00 en mm
DESCASC
Precipitaciones de 06:00 a 12:00 en mm
DESCASC
Precipitaciones de 12:00 a 18:00 en mm
DESCASC
Precipitaciones de 18:00 a 24:00 en mm
DESCASC
11-08-2020 29.8 (14:20) 14.6 (07:20) 22.2 7.78 (14:30) 4.17 (14:40) 0 0 0 0 0
10-08-2020 27.9 (16:20) 14.2 (07:10) 21 6.39 (16:10) 2.5 (16:10) 0.6 0 0.4 0.2 0
09-08-2020 33.6 (14:20) 14.8 (07:10) 24.2 9.72 (21:20) 4.17 (14:00) 11 0 0 0 11
08-08-2020 36.9 (16:50) 16.1 (07:20) 26.5 8.61 (20:00) 3.06 (18:00) 6.2 0 0 0 6.2
07-08-2020 36.7 (16:30) 16.2 (00:00) 26.5 9.72 (21:10) 4.17 (22:00) 1.6 0 0 0 1.6
06-08-2020 34.4 (16:40) 12.8 (00:00) 23.6 7.78 (14:20) 4.17 (14:30) 0 0 0 0 0
05-08-2020 31.6 (17:00) 11.4 (00:00) 21.5 9.72 (15:00) 5 (15:30) 0 0 0 0 0
04-08-2020 29.6 (17:10) 12.3 (07:50) 21 8.33 (17:10) 4.44 (16:40) 0 0 0 0 0
03-08-2020 28.9 (17:20) 14.1 (07:50) 21.5 9.17 (12:10) 4.44 (15:50) 0 0 0 0 0
02-08-2020 31.1 (14:40) 14.8 (00:00) 23 9.72 (16:10) 3.89 (16:10) 0 0 0 0 0
01-08-2020 35.3 (16:20) 16.1 (00:00) 25.7 8.33 (14:40) 4.44 (12:50) 0 0 0 0 0
31-07-2020 35.8 (16:20) 17.8 (07:10) 26.8 7.22 (15:30) 3.89 (13:00) 0 0 0 0 0
30-07-2020 35.9 (16:30) 17.6 (00:00) 26.8 10.83 (19:50) 4.72 (15:20) 0 0 0 0 0
29-07-2020 32.5 (15:50) 16.7 (00:00) 24.6 8.06 (16:50) 4.44 (16:20) 0 0 0 0 0
28-07-2020 34.4 (16:20) 17.4 (00:00) 25.9 10.28 (17:00) 4.17 (13:00) 0.4 0.4 0 0 0
27-07-2020 36 (16:20) 15.9 (00:00) 25.9 10 (22:50) 4.72 (22:50) 0 0 0 0 0
26-07-2020 32.7 (16:30) 14.3 (00:00) 23.5 7.5 (18:50) 3.89 (12:30) 0 0 0 0 0
25-07-2020 30.4 (16:50) 13.2 (00:00) 21.8 6.94 (16:40) 3.33 (13:00) 0 0 0 0 0
24-07-2020 29.4 (17:30) 15.4 (00:00) 22.4 8.61 (16:20) 3.89 (16:20) 3 2.6 0.4 0 0
23-07-2020 32.4 (16:40) 16 (00:00) 24.2 8.06 (16:30) 3.06 (14:20) 0 0 0 0 0
22-07-2020 32.4 (16:50) 18.1 (00:00) 25.3 7.22 (16:40) 3.89 (15:00) 0 0 0 0 0
21-07-2020 33.5 (16:30) 13.4 (00:00) 23.4 7.22 (17:00) 3.89 (13:50) 0 0 0 0 0
20-07-2020 31.5 (16:00) 15.3 (00:00) 23.4 9.17 (16:50) 5 (16:20) 0 0 0 0 0
19-07-2020 31.8 (17:00) 13 (00:00) 22.4 7.22 (18:00) 3.89 (18:00) 0 0 0 0 0
18-07-2020 30.7 (17:00) 10.8 (00:00) 20.8 7.5 (15:40) 3.61 (13:20) 0 0 0 0 0
17-07-2020 28.2 (16:30) 11.7 (00:00) 20 7.5 (17:00) 4.44 (16:50) 0 0 0 0 0
16-07-2020 28.2 (16:30) 11 (00:00) 19.6 7.5 (13:50) 3.89 (13:10) 0 0 0 0 0
15-07-2020 24.2 (19:40) 11.9 (00:00) 18.1 8.89 (14:20) 5.28 (14:20) 0 0 0 0 0

Gráficas

Temp. máximas Temp. mínimas Temp. medias Precipitaciones Rachas de viento máximas Velocidades máximas media en intervalos de 10 minutos

Datos horarios

Fecha y hora oficial Temperatura (ºC) Velocidad del viento (km/h) Dirección del viento Racha (km/h) Dirección de racha Precipitación (mm) Presión (hPa) Tendencia (hPa) Humedad (%)
2020-08-13 23:00:00 17.2 0 Calma 4 Sur 0 -- -- 77
2020-08-13 22:00:00 18.2 0 Calma 4 Este 0 -- -- 71
2020-08-13 21:00:00 20.1 2 Este 5 Este 0 -- -- 66
2020-08-13 20:00:00 23.5 2 Sudeste 12 Sur 0 -- -- 58
2020-08-13 19:00:00 26.6 3 Sudoeste 13 Sudoeste 0 -- -- 44
2020-08-13 18:00:00 26.6 3 Sur 11 Sur 0 -- -- 46
2020-08-13 17:00:00 27.3 6 Sudoeste 20 Sudoeste 0 -- -- 42
2020-08-13 16:00:00 28.9 6 Sudoeste 16 Oeste 0 -- -- 36
2020-08-13 15:00:00 27.7 6 Sur 23 Sudoeste 0 -- -- 40
2020-08-13 14:00:00 26.9 12 Sudoeste 29 Sur 0.2 -- -- 41
2020-08-13 13:00:00 25.7 8 Sudoeste 19 Sudoeste 0 -- -- 43
2020-08-13 12:00:00 21.7 0 Calma 8 Norte 0 -- -- 75
2020-08-13 11:00:00 18.8 3 Norte 8 Noroeste 0 -- -- 82
2020-08-13 10:00:00 16.2 3 Norte 8 Norte 0 -- -- 89
2020-08-13 09:00:00 14.3 3 Norte 10 Norte 0 -- -- 95
2020-08-13 08:00:00 13.3 0 Calma 5 Norte 0 -- -- 97
2020-08-13 07:00:00 13.4 0 Calma 4 Sur 0 -- -- 95
2020-08-13 06:00:00 13.6 0 Calma 5 Oeste 0 -- -- 95
2020-08-13 05:00:00 13.6 0 Calma 8 Norte 0 -- -- 96
2020-08-13 04:00:00 14 0 Calma 4 Norte 0 -- -- 95
2020-08-13 03:00:00 14.3 0 Calma 4 Sudoeste 0 -- -- 96
2020-08-13 02:00:00 14.4 2 Nordeste 4 Sur 0 -- -- 95
2020-08-13 01:00:00 14.9 0 Calma 6 Sudeste 0 -- -- 94
2020-08-13 00:00:00 15.6 4 Este 7 Nordeste 0 -- -- 92
2020-08-12 23:00:00 18.1 5 Sudeste 31 Sudoeste 2.2 -- -- 81
2020-08-12 22:00:00 21.3 2 Este 5 Oeste 0 -- -- 59
2020-08-12 21:00:00 22.1 2 Este 8 Sudoeste 0 -- -- 55
2020-08-12 20:00:00 24.6 3 Este 23 Sur 0 -- -- 46
2020-08-12 19:00:00 27.1 9 Sudoeste 26 Oeste 0 -- -- 34
2020-08-12 18:00:00 28 7 Sudoeste 34 Sudoeste 0 -- -- 33
2020-08-12 17:00:00 27.9 20 Sudoeste 35 Sudoeste 0 -- -- 30
2020-08-12 16:00:00 25.9 3 Oeste 22 Sudoeste 0 -- -- 54
2020-08-12 15:00:00 28 9 Sudoeste 27 Sudoeste 0 -- -- 49
2020-08-12 14:00:00 26.5 5 Sur 21 Sudoeste 0 -- -- 48
2020-08-12 13:00:00 24.4 3 Norte 8 Sudoeste 0 -- -- 62
2020-08-12 12:00:00 21.1 0 Calma 5 Norte 0 -- -- 66
2020-08-12 11:00:00 18.6 0 Calma 6 Nordeste 0 -- -- 86
2020-08-12 10:00:00 17.3 2 Sur 5 Norte 0 -- -- 93
2020-08-12 09:00:00 16.2 0 Calma 4 Sudeste 0 -- -- 95
2020-08-12 08:00:00 16 0 Calma 5 Sudeste 0.8 -- -- 93
2020-08-12 07:00:00 16.4 2 Sudeste 6 Sur 0.2 -- -- 90
2020-08-12 06:00:00 17.6 3 Sudeste 11 Norte 0 -- -- 79
2020-08-12 05:00:00 17.2 2 Norte 8 Norte 0 -- -- 86
2020-08-12 04:00:00 17.2 3 Oeste 6 Sudeste 0 -- -- 88
2020-08-12 03:00:00 17.8 0 Calma 4 Sudeste 0 -- -- 82
2020-08-12 02:00:00 18 0 Calma 5 Sur 0 -- -- 80
2020-08-12 01:00:00 18.8 0 Calma 6 Norte 0 -- -- 77
2020-08-12 00:00:00 19.2 0 Calma 3 Nordeste 0 -- -- 73
2020-08-11 23:00:00 19.9 2 Este 9 Norte 0 -- -- 72
2020-08-11 22:00:00 21 2 Sudeste 5 Norte 0 -- -- 65
2020-08-11 21:00:00 21.9 2 Norte 6 Nordeste 0 -- -- 63
2020-08-11 20:00:00 22.6 0 Calma 6 Norte 0 -- -- 62
2020-08-11 19:00:00 24.1 2 Nordeste 8 Sudoeste 0 -- -- 60
2020-08-11 18:00:00 27.4 5 Sur 23 Sudoeste 0 -- -- 38
2020-08-11 17:00:00 28.9 11 Sudoeste 22 Sudoeste 0 -- -- 34
2020-08-11 16:00:00 29.4 6 Sudoeste 20 Sudoeste 0 -- -- 35
2020-08-11 15:00:00 29.2 9 Sudoeste 28 Sudoeste 0 -- -- 34
2020-08-11 14:00:00 29.3 3 Sudoeste 8 Norte 0 -- -- 43
2020-08-11 13:00:00 29 2 Nordeste 9 Nordeste 0 -- -- 45
2020-08-11 12:00:00 24.4 2 Norte 19 Norte 0 -- -- 55
2020-08-11 11:00:00 21.4 4 Nordeste 19 Norte 0 -- -- 61
2020-08-11 10:00:00 18.2 3 Nordeste 20 Norte 0 -- -- 75
2020-08-11 09:00:00 16.2 3 Oeste 13 Noroeste 0 -- -- 83
2020-08-11 08:00:00 15.4 3 Norte 12 Norte 0 -- -- 83
2020-08-11 07:00:00 15 0 Calma 8 Noroeste 0 -- -- 84
2020-08-11 06:00:00 14.9 2 Este 8 Norte 0 -- -- 86
2020-08-11 05:00:00 15.1 3 Sudeste 12 Norte 0 -- -- 86
2020-08-11 04:00:00 15.1 0 Calma 9 Norte 0 -- -- 87
2020-08-11 03:00:00 15.8 0 Calma 9 Norte 0 -- -- 85
2020-08-11 02:00:00 16.7 0 Calma 4 Este 0 -- -- 82
2020-08-11 01:00:00 17 0 Calma 4 Norte 0 -- -- 81
2020-08-11 00:00:00 17.5 0 Calma 6 Nordeste 0 -- -- 81
2020-08-10 23:00:00 18.3 0 Calma 6 Sudeste 0 -- -- 80
2020-08-10 22:00:00 19.3 0 Calma 5 Norte 0 -- -- 76
2020-08-10 21:00:00 20.9 0 Calma 5 Sudeste 0 -- -- 71
2020-08-10 20:00:00 24.7 2 Sur 5 Norte 0 -- -- 63
2020-08-10 19:00:00 26.7 0 Calma 10 Norte 0 -- -- 53
2020-08-10 18:00:00 26.4 4 Sudoeste 9 Sudoeste 0 -- -- 45
2020-08-10 17:00:00 24.7 2 Este 23 Sudoeste 0 -- -- 61
2020-08-10 16:00:00 26.9 5 Sur 15 Sur 0 -- -- 48
2020-08-10 15:00:00 26.8 3 Noroeste 8 Norte 0 -- -- 66
2020-08-10 14:00:00 23.3 3 Sudeste 5 Sudeste 0.2 -- -- 87
2020-08-10 13:00:00 22.4 3 Oeste 9 Sudoeste 0 -- -- 81
2020-08-10 12:00:00 19.4 3 Nordeste 13 Norte 0.2 -- -- 85
2020-08-10 11:00:00 18.8 4 Sur 9 Sur 0.2 -- -- 90
2020-08-10 10:00:00 17.3 0 Calma 6 Norte 0 -- -- 90
2020-08-10 09:00:00 15.4 4 Norte 15 Norte 0 -- -- 95
2020-08-10 08:00:00 14.4 3 Noroeste 10 Noroeste 0 -- -- 98
2020-08-10 07:00:00 14.4 0 Calma 6 Sur 0 -- -- 97
2020-08-10 06:00:00 14.7 0 Calma 7 Noroeste 0 -- -- 98
2020-08-10 05:00:00 15 2 Oeste 6 Norte 0 -- -- 97
2020-08-10 04:00:00 15.3 2 Nordeste 4 Nordeste 0 -- -- 97
2020-08-10 03:00:00 15.8 0 Calma 6 Noroeste 0 -- -- 97
2020-08-10 02:00:00 16.3 2 Nordeste 5 Nordeste 0 -- -- 96
2020-08-10 01:00:00 16.6 0 Calma 8 Noroeste 0 -- -- 96
2020-08-10 00:00:00 16.8 0 Calma 5 Sudeste 0 -- -- 96
2020-08-09 23:00:00 17.1 2 Sudeste 5 Sudeste 0 -- -- 96
2020-08-09 22:00:00 17.4 3 Sur 35 Sudoeste 8.6 -- -- 93
2020-08-09 21:00:00 20.6 4 Este 13 Noroeste 1 -- -- 83
2020-08-09 20:00:00 21.2 5 Sudeste 9 Sur 0.2 -- -- 89
2020-08-09 19:00:00 22.9 3 Sudeste 15 Norte 1.2 -- -- 84
2020-08-09 18:00:00 25.6 4 Noroeste 13 Nordeste 0 -- -- 58
2020-08-09 17:00:00 26.1 3 Sur 17 Noroeste 0 -- -- 61
2020-08-09 16:00:00 28.6 5 Nordeste 14 Nordeste 0 -- -- 52
2020-08-09 15:00:00 32 6 Sudoeste 28 Sudoeste 0 -- -- 39
2020-08-09 14:00:00 33.2 15 Sudoeste 28 Sudoeste 0 -- -- 35
2020-08-09 13:00:00 31.4 6 Sudoeste 13 Sudoeste 0 -- -- 38
2020-08-09 12:00:00 25.9 0 Calma 7 Noroeste 0 -- -- 57
2020-08-09 11:00:00 21.3 3 Norte 10 Norte 0 -- -- 72
2020-08-09 10:00:00 18.2 3 Norte 9 Nordeste 0 -- -- 81
2020-08-09 09:00:00 16 0 Calma 8 Norte 0 -- -- 91
2020-08-09 08:00:00 15.4 2 Este 10 Nordeste 0 -- -- 94
2020-08-09 07:00:00 14.9 2 Oeste 10 Noroeste 0 -- -- 95
2020-08-09 06:00:00 15.1 2 Este 11 Noroeste 0 -- -- 96
2020-08-09 05:00:00 15.4 2 Este 5 Sudoeste 0 -- -- 96
2020-08-09 04:00:00 15.7 0 Calma 6 Sudoeste 0 -- -- 96
2020-08-09 03:00:00 16.2 2 Sur 6 Norte 0 -- -- 96
2020-08-09 02:00:00 16.3 0 Calma 4 Nordeste 0 -- -- 96
2020-08-09 01:00:00 16.9 3 Oeste 8 Nordeste 0 -- -- 95
2020-08-09 00:00:00 17.3 2 Este 13 Norte 0.2 -- -- 93
2020-08-08 23:00:00 17.2 4 Este 12 Noroeste 1.4 -- -- 91
2020-08-08 22:00:00 17.5 5 Este 17 Norte 1.2 -- -- 88
2020-08-08 21:00:00 20.6 4 Sudeste 31 Norte 3.4 -- -- 78
2020-08-08 20:00:00 29.3 10 Norte 31 Norte 0 -- -- 44
2020-08-08 19:00:00 33.1 8 Sur 17 Sudoeste 0 -- -- 35
2020-08-08 18:00:00 34.4 11 Sudoeste 23 Sudoeste 0 -- -- 32
2020-08-08 17:00:00 36.8 6 Sur 20 Sudoeste 0 -- -- 29
2020-08-08 16:00:00 36.5 6 Sudoeste 21 Sudoeste 0 -- -- 28
2020-08-08 15:00:00 35.5 9 Sudoeste 21 Sudoeste 0 -- -- 30
2020-08-08 14:00:00 35.3 7 Sudoeste 22 Sudoeste 0 -- -- 31
2020-08-08 13:00:00 33.3 8 Sudoeste 17 Sudoeste 0 -- -- 33
2020-08-08 12:00:00 28.3 4 Norte 6 Noroeste 0 -- -- 47
2020-08-08 11:00:00 23.3 0 Calma 5 Norte 0 -- -- 55
2020-08-08 10:00:00 19.9 2 Norte 8 Norte 0 -- -- 68
2020-08-08 09:00:00 17.3 0 Calma 5 Norte 0 -- -- 81
2020-08-08 08:00:00 16.1 2 Norte 5 Norte 0 -- -- 86
2020-08-08 07:00:00 16.3 2 Nordeste 9 Nordeste 0 -- -- 84
2020-08-08 06:00:00 16.7 2 Este 6 Sur 0 -- -- 86
2020-08-08 05:00:00 17.6 2 Nordeste 9 Norte 0 -- -- 82
2020-08-08 04:00:00 18.3 2 Sur 10 Sudoeste 0 -- -- 80
2020-08-08 03:00:00 19.8 3 Oeste 21 Noroeste 0 -- -- 77
2020-08-08 02:00:00 20.5 4 Este 17 Noroeste 0 -- -- 69
2020-08-08 01:00:00 19 4 Sur 10 Sudoeste 0 -- -- 86
2020-08-08 00:00:00 19.7 4 Sudeste 11 Noroeste 0 -- -- 76
2020-08-07 23:00:00 19.9 2 Nordeste 30 Sur 0.8 -- -- 80
2020-08-07 22:00:00 21.1 15 Sur 35 Noroeste 0.8 -- -- 75
2020-08-07 21:00:00 26.1 3 Sudeste 8 Sudeste 0 -- -- 58
2020-08-07 20:00:00 29 2 Este 8 Norte 0 -- -- 53
2020-08-07 19:00:00 32.1 4 Norte 12 Norte 0 -- -- 40
2020-08-07 18:00:00 32.4 3 Nordeste 10 Sudoeste 0 -- -- 39
2020-08-07 17:00:00 34.6 6 Sur 16 Sudoeste 0 -- -- 31
2020-08-07 16:00:00 35.7 8 Sur 20 Sudoeste 0 -- -- 30
2020-08-07 15:00:00 35.6 8 Sur 26 Sudoeste 0 -- -- 30
2020-08-07 14:00:00 34.7 12 Sudoeste 25 Sudoeste 0 -- -- 31
2020-08-07 13:00:00 32.8 12 Sudoeste 23 Sudoeste 0 -- -- 34
2020-08-07 12:00:00 28.5 4 Norte 10 Sur 0 -- -- 43
2020-08-07 11:00:00 23.6 0 Calma 6 Norte 0 -- -- 54
2020-08-07 10:00:00 20.1 3 Norte 5 Norte 0 -- -- 64
2020-08-07 09:00:00 18.4 2 Norte 12 Norte 0 -- -- 67
2020-08-07 08:00:00 17.6 3 Sudoeste 12 Norte 0 -- -- 69
2020-08-07 07:00:00 17.1 0 Calma 11 Norte 0 -- -- 72
2020-08-07 06:00:00 16.4 2 Sur 6 Nordeste 0 -- -- 75
2020-08-07 05:00:00 16.4 0 Calma 4 Sur 0 -- -- 75
2020-08-07 04:00:00 16.9 0 Calma 4 Sur 0 -- -- 73
2020-08-07 03:00:00 17.7 0 Calma 4 Sur 0 -- -- 71
2020-08-07 02:00:00 18.6 0 Calma 4 Este 0 -- -- 67
2020-08-07 01:00:00 19.2 0 Calma 4 Sudeste 0 -- -- 65
2020-08-07 00:00:00 19.9 0 Calma 3 Sudeste 0 -- -- 63
2020-08-06 23:00:00 21 0 Calma 4 Sudeste 0 -- -- 60
2020-08-06 22:00:00 22.8 0 Calma 5 Sur 0 -- -- 54
2020-08-06 21:00:00 25.8 0 Calma 7 Sur 0 -- -- 47
2020-08-06 20:00:00 31.5 4 Sudoeste 15 Sudoeste 0 -- -- 36
2020-08-06 19:00:00 32.8 6 Sudoeste 23 Sudoeste 0 -- -- 31
2020-08-06 18:00:00 33.9 11 Sudoeste 23 Sudoeste 0 -- -- 28
2020-08-06 17:00:00 34.2 10 Sudoeste 23 Sudoeste 0 -- -- 27
2020-08-06 16:00:00 33.9 12 Sudoeste 25 Sudoeste 0 -- -- 29
2020-08-06 15:00:00 33.1 12 Sudoeste 28 Sudoeste 0 -- -- 31
2020-08-06 14:00:00 31.6 11 Sudoeste 26 Sudoeste 0 -- -- 33
2020-08-06 13:00:00 30.1 11 Sudoeste 23 Sudoeste 0 -- -- 35
2020-08-06 12:00:00 26.2 4 Norte 7 Nordeste 0 -- -- 43
2020-08-06 11:00:00 20.8 0 Calma 9 Noroeste 0 -- -- 51
2020-08-06 10:00:00 17 4 Norte 9 Norte 0 -- -- 67
2020-08-06 09:00:00 14.5 0 Calma 12 Nordeste 0 -- -- 77
2020-08-06 08:00:00 13 0 Calma 8 Nordeste 0 -- -- 81
2020-08-06 07:00:00 12.9 0 Calma 3 Este 0 -- -- 79
2020-08-06 06:00:00 13 0 Calma 4 Norte 0 -- -- 79
2020-08-06 05:00:00 13.7 0 Calma 5 Noroeste 0 -- -- 76
2020-08-06 04:00:00 14.8 0 Calma 3 Sudeste 0 -- -- 73
2020-08-06 03:00:00 15.8 0 Calma 4 Sur 0 -- -- 69
2020-08-06 02:00:00 16.5 0 Calma 3 Este 0 -- -- 66
2020-08-06 01:00:00 16.8 0 Calma 3 Norte 0 -- -- 65
2020-08-06 00:00:00 17.8 0 Calma 3 Este 0 -- -- 62
2020-08-05 23:00:00 19.2 0 Calma 3 Este 0 -- -- 58
2020-08-05 22:00:00 20.9 0 Calma 4 Sudeste 0 -- -- 54
2020-08-05 21:00:00 24.7 2 Nordeste 11 Sudoeste 0 -- -- 44
2020-08-05 20:00:00 29.3 6 Sudoeste 21 Sur 0 -- -- 33
2020-08-05 19:00:00 30.5 8 Sudoeste 20 Sudoeste 0 -- -- 32
2020-08-05 18:00:00 31.5 8 Sudoeste 26 Sur 0 -- -- 32
2020-08-05 17:00:00 31.6 9 Sudoeste 28 Sudoeste 0 -- -- 32
2020-08-05 16:00:00 31 13 Sudoeste 29 Sudoeste 0 -- -- 33
2020-08-05 15:00:00 29.9 15 Sudoeste 35 Sudoeste 0 -- -- 34
2020-08-05 14:00:00 28.8 13 Sudoeste 28 Sudoeste 0 -- -- 34
2020-08-05 13:00:00 27.5 13 Sudoeste 23 Sudoeste 0 -- -- 36
2020-08-05 12:00:00 24.5 3 Norte 7 Norte 0 -- -- 42
2020-08-05 11:00:00 19.8 4 Sur 11 Sudeste 0 -- -- 55
2020-08-05 10:00:00 15.6 3 Norte 8 Norte 0 -- -- 67
2020-08-05 09:00:00 13 3 Norte 8 Norte 0 -- -- 78
2020-08-05 08:00:00 11.5 0 Calma 4 Sur 0 -- -- 81
2020-08-05 07:00:00 11.8 2 Sur 7 Norte 0 -- -- 80
2020-08-05 06:00:00 12.3 0 Calma 5 Noroeste 0 -- -- 78
2020-08-05 05:00:00 13 0 Calma 4 Noroeste 0 -- -- 76
2020-08-05 04:00:00 13.7 0 Calma 5 Norte 0 -- -- 73
2020-08-05 03:00:00 14.4 0 Calma 4 Sudoeste 0 -- -- 71
2020-08-05 02:00:00 15.1 0 Calma 4 Sur 0 -- -- 69
2020-08-05 01:00:00 16.2 0 Calma 7 Norte 0 -- -- 65
2020-08-05 00:00:00 16.6 0 Calma 4 Norte 0 -- -- 64
2020-08-04 23:00:00 18.4 2 Este 7 Sudoeste 0 -- -- 58
2020-08-04 22:00:00 20.6 0 Calma 14 Sudoeste 0 -- -- 50
2020-08-04 21:00:00 24.2 5 Sur 15 Sur 0 -- -- 39
2020-08-04 20:00:00 26.8 6 Sur 24 Sudoeste 0 -- -- 35
2020-08-04 19:00:00 27.7 10 Sudoeste 28 Oeste 0 -- -- 33
2020-08-04 18:00:00 29.1 14 Sudoeste 30 Sudoeste 0 -- -- 29
2020-08-04 17:00:00 29.4 14 Sudoeste 27 Sudoeste 0 -- -- 25
2020-08-04 16:00:00 29 13 Sudoeste 29 Sudoeste 0 -- -- 25
2020-08-04 15:00:00 28.5 10 Sur 27 Sudoeste 0 -- -- 27
2020-08-04 14:00:00 27.7 13 Sudoeste 24 Sudoeste 0 -- -- 26
2020-08-04 13:00:00 26.6 10 Sudoeste 20 Sudoeste 0 -- -- 28
2020-08-04 12:00:00 24.5 8 Sudoeste 16 Sudoeste 0 -- -- 28
2020-08-04 11:00:00 20.1 0 Calma 7 Norte 0 -- -- 31
2020-08-04 10:00:00 16.4 2 Sudeste 7 Norte 0 -- -- 55
2020-08-04 09:00:00 13.8 3 Este 12 Norte 0 -- -- 65
2020-08-04 08:00:00 12.4 0 Calma 10 Noroeste 0 -- -- 66
2020-08-04 07:00:00 12.6 2 Noroeste 6 Sudeste 0 -- -- 64
2020-08-04 06:00:00 13 3 Sudoeste 6 Oeste 0 -- -- 64
2020-08-04 05:00:00 13.9 2 Sur 6 Norte 0 -- -- 60
2020-08-04 04:00:00 14.9 2 Este 8 Nordeste 0 -- -- 58
2020-08-04 03:00:00 15.5 2 Sudeste 6 Nordeste 0 -- -- 55
2020-08-04 02:00:00 16.4 3 Norte 8 Sudeste 0 -- -- 52
2020-08-04 01:00:00 17.6 3 Sudeste 21 Sudoeste 0 -- -- 50
2020-08-04 00:00:00 17.6 2 Sur 14 Sudoeste 0 -- -- 52
2020-08-03 23:00:00 19 3 Sur 14 Noroeste 0 -- -- 48
2020-08-03 22:00:00 20.7 5 Norte 16 Norte 0 -- -- 42
2020-08-03 21:00:00 23.3 3 Noroeste 17 Noroeste 0 -- -- 40
2020-08-03 20:00:00 25.4 6 Norte 21 Norte 0 -- -- 35
2020-08-03 19:00:00 25 5 Sur 24 Sudoeste 0 -- -- 36
2020-08-03 18:00:00 26.9 9 Sudoeste 23 Sudoeste 0 -- -- 33
2020-08-03 17:00:00 28.7 12 Sudoeste 26 Oeste 0 -- -- 36
2020-08-03 16:00:00 28.1 12 Sudoeste 27 Sudoeste 0 -- -- 38
2020-08-03 15:00:00 27.8 12 Sudoeste 28 Sudoeste 0 -- -- 41
2020-08-03 14:00:00 26.6 12 Sudoeste 27 Sur 0 -- -- 43
2020-08-03 13:00:00 26.2 14 Sudoeste 33 Sudoeste 0 -- -- 44
2020-08-03 12:00:00 24.8 13 Sudoeste 26 Sudoeste 0 -- -- 50
2020-08-03 11:00:00 20.9 3 Sur 11 Sudoeste 0 -- -- 59
2020-08-03 10:00:00 17.2 2 Noroeste 5 Norte 0 -- -- 69
2020-08-03 09:00:00 15.3 0 Calma 5 Norte 0 -- -- 77
2020-08-03 08:00:00 14.1 0 Calma 4 Este 0 -- -- 82
2020-08-03 07:00:00 14.5 0 Calma 4 Sudeste 0 -- -- 79
2020-08-03 06:00:00 15.8 0 Calma 4 Sudeste 0 -- -- 74
2020-08-03 05:00:00 17.1 0 Calma 5 Sudeste 0 -- -- 73
2020-08-03 04:00:00 17.9 2 Sur 8 Sudoeste 0 -- -- 68
2020-08-03 03:00:00 18.6 0 Calma 11 Norte 0 -- -- 61
2020-08-03 02:00:00 18 0 Calma 5 Sudoeste 0 -- -- 67
2020-08-03 01:00:00 18 0 Calma 4 Noroeste 0 -- -- 69
2020-08-03 00:00:00 18.4 0 Calma 4 Norte 0 -- -- 67
2020-08-02 23:00:00 19.5 2 Sur 6 Este 0 -- -- 62
2020-08-02 22:00:00 21.6 3 Sudeste 5 Norte 0 -- -- 56
2020-08-02 21:00:00 25 3 Sur 11 Sudeste 0 -- -- 45
2020-08-02 20:00:00 26.3 3 Sur 16 Sudoeste 0 -- -- 48
2020-08-02 19:00:00 27.3 5 Sur 19 Sudoeste 0 -- -- 44
2020-08-02 18:00:00 28.3 6 Sudoeste 30 Sudoeste 0 -- -- 44
2020-08-02 17:00:00 29.4 11 Sudoeste 35 Sudoeste 0 -- -- 42
2020-08-02 16:00:00 29.9 12 Sudoeste 30 Sudoeste 0 -- -- 40
2020-08-02 15:00:00 30.9 12 Sur 26 Sur 0 -- -- 38
2020-08-02 14:00:00 30.4 9 Sur 27 Sudeste 0 -- -- 36
2020-08-02 13:00:00 29.9 11 Sudoeste 30 Sudoeste 0 -- -- 35
2020-08-02 12:00:00 27.8 10 Sudoeste 24 Sudoeste 0 -- -- 40
2020-08-02 11:00:00 22.4 3 Oeste 7 Oeste 0 -- -- 55
2020-08-02 10:00:00 18.4 0 Calma 5 Norte 0 -- -- 67
2020-08-02 09:00:00 16 0 Calma 6 Norte 0 -- -- 76
2020-08-02 08:00:00 14.8 0 Calma 3 Sudeste 0 -- -- 79
2020-08-02 07:00:00 15.5 0 Calma 5 Sur 0 -- -- 76
2020-08-02 06:00:00 16.3 3 Sur 11 Norte 0 -- -- 73
2020-08-02 05:00:00 16.7 3 Sur 8 Oeste 0 -- -- 73
2020-08-02 04:00:00 17.4 2 Sudoeste 5 Sudoeste 0 -- -- 70
2020-08-02 03:00:00 18.3 0 Calma 4 Nordeste 0 -- -- 66
2020-08-02 02:00:00 19 0 Calma 3 Norte 0 -- -- 64
2020-08-02 01:00:00 19.9 0 Calma 5 Sudeste 0 -- -- 62
2020-08-02 00:00:00 21 2 Este 5 Norte 0 -- -- 61
2020-08-01 23:00:00 22.4 0 Calma 4 Sudeste 0 -- -- 57
2020-08-01 22:00:00 24.6 2 Sur 5 Este 0 -- -- 53
2020-08-01 21:00:00 27.7 2 Sur 12 Sur 0 -- -- 45
2020-08-01 20:00:00 31.6 6 Sur 20 Sur 0 -- -- 34
2020-08-01 19:00:00 33.1 6 Sudoeste 25 Sudoeste 0 -- -- 30
2020-08-01 18:00:00 34.3 10 Sudoeste 24 Sudoeste 0 -- -- 29
2020-08-01 17:00:00 35 10 Sudoeste 25 Sur 0 -- -- 27
2020-08-01 16:00:00 35.2 8 Sudoeste 26 Sudoeste 0 -- -- 30
2020-08-01 15:00:00 34.7 9 Sudoeste 30 Sudoeste 0 -- -- 30
2020-08-01 14:00:00 33.8 11 Sudoeste 29 Sudoeste 0 -- -- 31
2020-08-01 13:00:00 33 11 Sudoeste 26 Sudoeste 0 -- -- 33
2020-08-01 12:00:00 29.4 3 Norte 8 Norte 0 -- -- 41
2020-08-01 11:00:00 24.4 3 Norte 9 Norte 0 -- -- 49
2020-08-01 10:00:00 20.5 2 Nordeste 9 Noroeste 0 -- -- 60
2020-08-01 09:00:00 18.1 2 Norte 9 Noroeste 0 -- -- 65
2020-08-01 08:00:00 16.4 2 Sudoeste 12 Noroeste 0 -- -- 70
2020-08-01 07:00:00 16.3 0 Calma 8 Nordeste 0 -- -- 67
2020-08-01 06:00:00 16.5 0 Calma 6 Sur 0 -- -- 66
2020-08-01 05:00:00 17.2 0 Calma 7 Noroeste 0 -- -- 63
2020-08-01 04:00:00 17.5 2 Sudoeste 8 Norte 0 -- -- 62
2020-08-01 03:00:00 18.4 0 Calma 8 Este 0 -- -- 59
2020-08-01 02:00:00 19.1 0 Calma 4 Sudeste 0 -- -- 57
2020-08-01 01:00:00 20.3 0 Calma 8 Norte 0 -- -- 54
2020-08-01 00:00:00 21.3 2 Nordeste 4 Nordeste 0 -- -- 51
2020-07-31 23:00:00 22 0 Calma 4 Sudeste 0 -- -- 51
2020-07-31 22:00:00 23.4 0 Calma 3 Este 0 -- -- 46
2020-07-31 21:00:00 25.8 0 Calma 4 Sur 0 -- -- 45
2020-07-31 20:00:00 33.4 2 Sudoeste 12 Sudoeste 0 -- -- 28
2020-07-31 19:00:00 34.3 7 Sudoeste 22 Sudoeste 0 -- -- 24
2020-07-31 18:00:00 35.4 10 Sudoeste 24 Sudoeste 0 -- -- 23
2020-07-31 17:00:00 35.4 8 Oeste 22 Sudoeste 0 -- -- 28
2020-07-31 16:00:00 35.5 7 Sudoeste 26 Sudoeste 0 -- -- 29
2020-07-31 15:00:00 34.9 11 Sudoeste 23 Sur 0 -- -- 29
2020-07-31 14:00:00 34.3 6 Sudoeste 26 Sudoeste 0 -- -- 29
2020-07-31 13:00:00 32.8 14 Sudoeste 21 Sudoeste 0 -- -- 30
2020-07-31 12:00:00 29.2 3 Norte 9 Norte 0 -- -- 39
2020-07-31 11:00:00 24.8 3 Norte 6 Norte 0 -- -- 54
2020-07-31 10:00:00 20.9 2 Norte 13 Norte 0 -- -- 65
2020-07-31 09:00:00 19.1 3 Nordeste 11 Norte 0 -- -- 72
2020-07-31 08:00:00 17.9 2 Oeste 10 Norte 0 -- -- 77
2020-07-31 07:00:00 18 0 Calma 6 Este 0 -- -- 74
2020-07-31 06:00:00 18.5 0 Calma 6 Nordeste 0 -- -- 73
2020-07-31 05:00:00 19.5 0 Calma 14 Nordeste 0 -- -- 70
2020-07-31 04:00:00 19.7 0 Calma 5 Norte 0 -- -- 70
2020-07-31 03:00:00 -- 0 Calma 6 Nordeste 0 -- -- --
2020-07-31 02:00:00 21.1 0 Calma 6 Sur 0 -- -- 65
2020-07-31 01:00:00 22 0 Calma 5 Sudoeste 0 -- -- 64
2020-07-31 00:00:00 23.2 0 Calma 4 Norte 0 -- -- 59
2020-07-30 23:00:00 23.8 0 Calma 5 Sudeste 0 -- -- 57
2020-07-30 22:00:00 24.5 3 Sudeste 5 Sudeste 0 -- -- 55
2020-07-30 21:00:00 27.7 0 Calma 28 Sudoeste 0 -- -- 47
2020-07-30 20:00:00 32 13 Sudoeste 39 Oeste 0 -- -- 34
2020-07-30 19:00:00 33.9 6 Sur 21 Sudoeste 0 -- -- 32
2020-07-30 18:00:00 35.6 8 Sudoeste 23 Sudoeste 0 -- -- 30
2020-07-30 17:00:00 35.9 11 Sudoeste 24 Sudoeste 0 -- -- 28
2020-07-30 16:00:00 35.4 13 Sudoeste 26 Sudoeste 0 -- -- 27
2020-07-30 15:00:00 34.7 15 Sudoeste 25 Sudoeste 0 -- -- 29
2020-07-30 14:00:00 34.1 6 Sudoeste 30 Sudoeste 0 -- -- 30
2020-07-30 13:00:00 32.5 6 Sudoeste 15 Sudoeste 0 -- -- 32
2020-07-30 12:00:00 28.5 2 Este 5 Norte 0 -- -- 45
2020-07-30 11:00:00 24.5 2 Norte 8 Norte 0 -- -- 55
2020-07-30 10:00:00 21.3 3 Norte 7 Norte 0 -- -- 65
2020-07-30 09:00:00 18.8 0 Calma 5 Norte 0 -- -- 76
2020-07-30 08:00:00 17.7 0 Calma 4 Sudeste 0 -- -- 81
2020-07-30 07:00:00 19 0 Calma 11 Sur 0 -- -- 74
2020-07-30 06:00:00 19.4 4 Norte 21 Norte 0 -- -- 74
2020-07-30 05:00:00 18.9 2 Oeste 13 Norte 0 -- -- 76
2020-07-30 04:00:00 18.7 0 Calma 6 Oeste 0 -- -- 73
2020-07-30 03:00:00 18.9 0 Calma 5 Noroeste 0 -- -- 72
2020-07-30 02:00:00 19.4 0 Calma 4 Noroeste 0 -- -- 70
2020-07-30 01:00:00 20 0 Calma 4 Nordeste 0 -- -- 68
2020-07-30 00:00:00 20.8 0 Calma 3 Sur 0 -- -- 66
2020-07-29 23:00:00 21.3 0 Calma 3 Este 0 -- -- 64
2020-07-29 22:00:00 23.2 0 Calma 4 Sudeste 0 -- -- 60
2020-07-29 21:00:00 26.1 3 Sudeste 5 Sudeste 0 -- -- 54
2020-07-29 20:00:00 30.3 3 Sudoeste 20 Sudoeste 0 -- -- 40
2020-07-29 19:00:00 31.4 9 Sudoeste 25 Sudoeste 0 -- -- 37
2020-07-29 18:00:00 32.1 10 Sudoeste 27 Sudoeste 0 -- -- 38
2020-07-29 17:00:00 32.2 15 Sudoeste 29 Sudoeste 0 -- -- 38
2020-07-29 16:00:00 32.5 12 Sudoeste 26 Sudoeste 0 -- -- 36
2020-07-29 15:00:00 32 10 Sudoeste 20 Sudoeste 0 -- -- 36
2020-07-29 14:00:00 29.6 2 Noroeste 5 Noroeste 0 -- -- 40
2020-07-29 13:00:00 24.8 3 Noroeste 8 Noroeste 0 -- -- 61
2020-07-29 12:00:00 22.4 2 Sudeste 4 Nordeste 0 -- -- 71
2020-07-29 11:00:00 22.1 2 Este 8 Norte 0 -- -- 64
2020-07-29 10:00:00 20.4 2 Norte 9 Norte 0 -- -- 64
2020-07-29 09:00:00 18.2 2 Nordeste 9 Nordeste 0 -- -- 72
2020-07-29 08:00:00 16.8 0 Calma 6 Norte 0 -- -- 77
2020-07-29 07:00:00 17.2 2 Sur 12 Nordeste 0 -- -- 75
2020-07-29 06:00:00 17.7 0 Calma 6 Sudeste 0 -- -- 74
2020-07-29 05:00:00 18 2 Sur 6 Norte 0 -- -- 73
2020-07-29 04:00:00 18.5 0 Calma 7 Noroeste 0 -- -- 72
2020-07-29 03:00:00 19 0 Calma 3 Sur 0 -- -- 70
2020-07-29 02:00:00 19.8 0 Calma 3 Sudoeste 0 -- -- 68
2020-07-29 01:00:00 20.5 0 Calma 4 Este 0 -- -- 66
2020-07-29 00:00:00 20.9 0 Calma 4 Sudeste 0 -- -- 64
2020-07-28 23:00:00 22.3 0 Calma 3 Sudeste 0 -- -- 60
2020-07-28 22:00:00 23.9 0 Calma 3 Este 0 -- -- 55
2020-07-28 21:00:00 26.9 3 Sudeste 10 Sudoeste 0 -- -- 48
2020-07-28 20:00:00 32 4 Sur 26 Sudoeste 0 -- -- 35
2020-07-28 19:00:00 32.8 8 Sudoeste 30 Sudoeste 0 -- -- 31
2020-07-28 18:00:00 33.9 8 Sudoeste 22 Sudoeste 0 -- -- 32
2020-07-28 17:00:00 33.9 10 Oeste 37 Sudoeste 0 -- -- 31
2020-07-28 16:00:00 34.2 9 Sudoeste 28 Sudoeste 0 -- -- 32
2020-07-28 15:00:00 33.5 12 Sudoeste 29 Sudoeste 0 -- -- 33
2020-07-28 14:00:00 32.7 15 Sudoeste 30 Sudoeste 0 -- -- 36
2020-07-28 13:00:00 31.9 15 Sudoeste 29 Sudoeste 0 -- -- 41
2020-07-28 12:00:00 29.2 4 Sur 10 Sudoeste 0 -- -- 48
2020-07-28 11:00:00 25 4 Norte 11 Este 0 -- -- 66
2020-07-28 10:00:00 22.1 4 Nordeste 15 Norte 0 -- -- 74
2020-07-28 09:00:00 20.3 2 Este 13 Norte 0 -- -- 79
2020-07-28 08:00:00 18.1 2 Norte 10 Norte 0 -- -- 86
2020-07-28 07:00:00 17.5 2 Oeste 6 Sudoeste 0 -- -- 88
2020-07-28 06:00:00 18 0 Calma 9 Norte 0 -- -- 86
2020-07-28 05:00:00 18.8 0 Calma 8 Sudoeste 0 -- -- 85
2020-07-28 04:00:00 19.6 2 Noroeste 15 Norte 0 -- -- 80
2020-07-28 03:00:00 20 2 Sudeste 17 Norte 0 -- -- 82
2020-07-28 02:00:00 21.1 3 Este 15 Norte 0 -- -- 77
2020-07-28 01:00:00 21.8 4 Sudoeste 19 Noroeste 0.4 -- -- 77
2020-07-28 00:00:00 24.3 2 Norte 10 Oeste 0 -- -- 61
2020-07-27 23:00:00 26 15 Sudoeste 36 Sur 0 -- -- 55
2020-07-27 22:00:00 25.4 2 Este 5 Sudeste 0 -- -- 61
2020-07-27 21:00:00 28.2 0 Calma 13 Sudoeste 0 -- -- 52
2020-07-27 20:00:00 33.2 8 Sudoeste 18 Sudoeste 0 -- -- 40
2020-07-27 19:00:00 34.6 8 Sudoeste 22 Sur 0 -- -- 37
2020-07-27 18:00:00 35.7 9 Sudoeste 20 Sudoeste 0 -- -- 35
2020-07-27 17:00:00 35.7 12 Sur 27 Sudoeste 0 -- -- 33
2020-07-27 16:00:00 35.9 10 Sudoeste 22 Sudoeste 0 -- -- 33
2020-07-27 15:00:00 35.6 6 Sudoeste 22 Sudoeste 0 -- -- 37
2020-07-27 14:00:00 33.9 11 Sudoeste 26 Sudoeste 0 -- -- 36
2020-07-27 13:00:00 32.3 6 Sur 15 Sudoeste 0 -- -- 37
2020-07-27 12:00:00 28 3 Sur 7 Sur 0 -- -- 51
2020-07-27 09:00:00 -- -- -- -- -- -- -- -- --
2020-07-27 08:00:00 16.1 0 Calma 9 Norte 0 -- -- 88
2020-07-27 07:00:00 16.1 0 Calma 8 Norte 0 -- -- 87
2020-07-27 06:00:00 16.4 0 Calma 4 Norte 0 -- -- 86
2020-07-27 05:00:00 17.1 0 Calma 6 Nordeste 0 -- -- 84
2020-07-27 04:00:00 17.5 0 Calma 5 Nordeste 0 -- -- 83
2020-07-27 03:00:00 17.8 0 Calma 4 Este 0 -- -- 82
2020-07-27 02:00:00 18.5 0 Calma 3 Sudeste 0 -- -- 80
2020-07-27 01:00:00 19 0 Calma 4 Este 0 -- -- 78
2020-07-27 00:00:00 19.9 0 Calma 2 Sur 0 -- -- 75
2020-07-26 23:00:00 21.3 0 Calma 4 Sudeste 0 -- -- 70
2020-07-26 22:00:00 23.3 2 Sudeste 6 Oeste 0 -- -- 64
2020-07-26 21:00:00 26 0 Calma 11 Sudoeste 0 -- -- 56
2020-07-26 20:00:00 30.4 6 Sudoeste 23 Oeste 0 -- -- 44
2020-07-26 19:00:00 30.9 8 Sudoeste 27 Oeste 0 -- -- 42
2020-07-26 18:00:00 32.3 9 Sudoeste 24 Sudoeste 0 -- -- 38
2020-07-26 17:00:00 32.5 8 Sudoeste 24 Sur 0 -- -- 36
2020-07-26 16:00:00 32.5 8 Sur 26 Sudeste 0 -- -- 36
2020-07-26 15:00:00 31.7 9 Sudoeste 23 Sudoeste 0 -- -- 36
2020-07-26 14:00:00 30.6 9 Sur 24 Sudoeste 0 -- -- 40
2020-07-26 13:00:00 29.6 9 Sudoeste 24 Sudoeste 0 -- -- 39
2020-07-26 12:00:00 26.8 8 Sudoeste 14 Sudoeste 0 -- -- 43
2020-07-26 11:00:00 22.5 0 Calma 5 Norte 0 -- -- 59
2020-07-26 10:00:00 18.6 3 Norte 9 Noroeste 0 -- -- 72
2020-07-26 09:00:00 16.2 2 Nordeste 6 Norte 0 -- -- 81
2020-07-26 08:00:00 14.8 2 Noroeste 6 Norte 0 -- -- 86
2020-07-26 07:00:00 14.4 0 Calma 4 Sur 0 -- -- 86
2020-07-26 06:00:00 14.9 2 Norte 4 Norte 0 -- -- 84
2020-07-26 05:00:00 15.5 0 Calma 6 Oeste 0 -- -- 81
2020-07-26 04:00:00 15.9 0 Calma 4 Noroeste 0 -- -- 80
2020-07-26 03:00:00 16.3 0 Calma 4 Norte 0 -- -- 78
2020-07-26 02:00:00 16.7 0 Calma 4 Sudeste 0 -- -- 78
2020-07-26 01:00:00 17.4 0 Calma 4 Sur 0 -- -- 75
2020-07-26 00:00:00 18.2 0 Calma 3 Sudeste 0 -- -- 72
2020-07-25 23:00:00 19.1 0 Calma 4 Sur 0 -- -- 70
2020-07-25 22:00:00 21 0 Calma 7 Sudeste 0 -- -- 63
2020-07-25 21:00:00 23.7 3 Este 14 Sudoeste 0 -- -- 55
2020-07-25 20:00:00 29 6 Sudoeste 20 Sudoeste 0 -- -- 38
2020-07-25 19:00:00 29.2 6 Sudoeste 23 Oeste 0 -- -- 38
2020-07-25 18:00:00 30.2 8 Sudoeste 21 Sudoeste 0 -- -- 39
2020-07-25 17:00:00 30.3 8 Sudoeste 25 Sudoeste 0 -- -- 41
2020-07-25 16:00:00 30.1 8 Sur 21 Sudoeste 0 -- -- 41
2020-07-25 15:00:00 29.6 7 Sudoeste 22 Sudoeste 0 -- -- 39
2020-07-25 14:00:00 29.2 8 Sudoeste 19 Oeste 0 -- -- 42
2020-07-25 13:00:00 27.6 12 Sudoeste 22 Sudoeste 0 -- -- 42
2020-07-25 12:00:00 25.6 9 Sudoeste 18 Sudoeste 0 -- -- 48
2020-07-25 11:00:00 21.2 2 Nordeste 6 Noroeste 0 -- -- 67
2020-07-25 10:00:00 17.1 2 Nordeste 6 Norte 0 -- -- 77
2020-07-25 09:00:00 15 2 Nordeste 9 Norte 0 -- -- 85
2020-07-25 08:00:00 13.4 0 Calma 4 Norte 0 -- -- 92
2020-07-25 07:00:00 13.4 0 Calma 4 Este 0 -- -- 90
2020-07-25 06:00:00 13.7 0 Calma 4 Noroeste 0 -- -- 89
2020-07-25 05:00:00 14.2 0 Calma 4 Nordeste 0 -- -- 87
2020-07-25 04:00:00 14.6 0 Calma 3 Norte 0 -- -- 86
2020-07-25 03:00:00 15 0 Calma 3 Sur 0 -- -- 85
2020-07-25 02:00:00 15.8 0 Calma 3 Noroeste 0 -- -- 83
2020-07-25 01:00:00 16.6 0 Calma 4 Noroeste 0 -- -- 81
2020-07-25 00:00:00 17.5 0 Calma 3 Norte 0 -- -- 78
2020-07-24 23:00:00 18.8 0 Calma 5 Nordeste 0 -- -- 73
2020-07-24 22:00:00 20.5 0 Calma 4 Este 0 -- -- 68
2020-07-24 21:00:00 23.7 2 Sudeste 10 Sudoeste 0 -- -- 59
2020-07-24 20:00:00 28.2 6 Sudoeste 27 Sudoeste 0 -- -- 43
2020-07-24 19:00:00 28.4 10 Sudoeste 26 Sudoeste 0 -- -- 42
2020-07-24 18:00:00 29.2 11 Sudoeste 27 Sudoeste 0 -- -- 42
2020-07-24 17:00:00 29 9 Sudoeste 31 Sudoeste 0 -- -- 45
2020-07-24 16:00:00 28.9 8 Sudoeste 27 Sur 0 -- -- 46
2020-07-24 15:00:00 28.6 12 Sudoeste 24 Sudoeste 0 -- -- 44
2020-07-24 14:00:00 27.5 10 Sur 23 Sudoeste 0 -- -- 46
2020-07-24 13:00:00 26.8 8 Sudoeste 24 Sudoeste 0 -- -- 46
2020-07-24 12:00:00 24.9 5 Sudoeste 13 Sudoeste 0 -- -- 61
2020-07-24 11:00:00 21.2 2 Sur 8 Sudoeste 0 -- -- 74
2020-07-24 10:00:00 18 0 Calma 5 Norte 0 -- -- 87
2020-07-24 09:00:00 16.8 0 Calma 4 Norte 0.2 -- -- 94
2020-07-24 08:00:00 16 0 Calma 4 Sur 0 -- -- 98
2020-07-24 07:00:00 15.5 0 Calma 4 Nordeste 0.2 -- -- 96
2020-07-24 06:00:00 15.8 2 Este 6 Sur 0 -- -- 95
2020-07-24 05:00:00 16.8 5 Sudeste 23 Sur 2.6 -- -- 92
2020-07-24 04:00:00 16.8 0 Calma 4 Sudeste 0 -- -- 81
2020-07-24 03:00:00 16.7 0 Calma 4 Sudeste 0 -- -- 77
2020-07-24 02:00:00 17.2 0 Calma 4 Este 0 -- -- 74
2020-07-24 01:00:00 18.2 0 Calma 3 Sur 0 -- -- 73
2020-07-24 00:00:00 18.9 0 Calma 4 Este 0 -- -- 68
2020-07-23 23:00:00 20.2 0 Calma 4 Este 0 -- -- 65
2020-07-23 22:00:00 22.1 0 Calma 4 Sudeste 0 -- -- 57
2020-07-23 21:00:00 25.3 2 Sudeste 9 Sur 0 -- -- 46
2020-07-23 20:00:00 29.8 6 Sudoeste 20 Sudoeste 0 -- -- 34
2020-07-23 19:00:00 29.4 6 Sur 23 Sudoeste 0 -- -- 35
2020-07-23 18:00:00 31.3 9 Sudoeste 22 Sudoeste 0 -- -- 34
2020-07-23 17:00:00 32.2 9 Sudoeste 29 Sudoeste 0 -- -- 33
2020-07-23 16:00:00 32 9 Sudoeste 27 Sudoeste 0 -- -- 32
2020-07-23 15:00:00 31.7 8 Sudoeste 24 Sudoeste 0 -- -- 33
2020-07-23 14:00:00 31.6 6 Sudoeste 19 Sudoeste 0 -- -- 33
2020-07-23 13:00:00 30.6 9 Sudoeste 19 Sudoeste 0 -- -- 33
2020-07-23 12:00:00 27.6 2 Oeste 5 Norte 0 -- -- 46
2020-07-23 11:00:00 24 0 Calma 5 Norte 0 -- -- 50
2020-07-23 10:00:00 19.8 3 Norte 6 Norte 0 -- -- 66
2020-07-23 09:00:00 17.6 3 Norte 6 Norte 0 -- -- 75
2020-07-23 08:00:00 16.6 0 Calma 3 Oeste 0 -- -- 79
2020-07-23 07:00:00 16 0 Calma 5 Sur 0 -- -- 78
2020-07-23 06:00:00 16.5 0 Calma 4 Norte 0 -- -- 76
2020-07-23 05:00:00 17.1 0 Calma 5 Nordeste 0 -- -- 74
2020-07-23 04:00:00 17.4 0 Calma 5 Norte 0 -- -- 71
2020-07-23 03:00:00 18.2 0 Calma 4 Norte 0 -- -- 69
2020-07-23 02:00:00 18.3 0 Calma 3 Norte 0 -- -- 69
2020-07-23 01:00:00 19.2 0 Calma 4 Sur 0 -- -- 65
2020-07-23 00:00:00 19.6 2 Sur 5 Sudoeste 0 -- -- 65
2020-07-22 23:00:00 20.8 0 Calma 4 Sudeste 0 -- -- 58
2020-07-22 22:00:00 23 0 Calma 5 Este 0 -- -- 53
2020-07-22 21:00:00 26.4 4 Sur 17 Sudoeste 0 -- -- 39
2020-07-22 20:00:00 27.9 6 Sudoeste 22 Sudoeste 0 -- -- 37
2020-07-22 19:00:00 28.6 8 Sur 24 Sudoeste 0 -- -- 37
2020-07-22 18:00:00 32 6 Sudoeste 24 Sudoeste 0 -- -- 31
2020-07-22 17:00:00 32.3 9 Sudoeste 26 Sudoeste 0 -- -- 29
2020-07-22 16:00:00 32.3 10 Sudoeste 24 Sudoeste 0 -- -- 31
2020-07-22 15:00:00 31.5 14 Sudoeste 22 Sudoeste 0 -- -- 29
2020-07-22 14:00:00 29.1 8 Sudoeste 22 Sudoeste 0 -- -- 37
2020-07-22 13:00:00 28.8 13 Sudoeste 24 Sudoeste 0 -- -- 37
2020-07-22 12:00:00 27 9 Sudoeste 23 Sudoeste 0 -- -- 49
2020-07-22 11:00:00 24.7 2 Norte 7 Norte 0 -- -- 66
2020-07-22 10:00:00 21.8 3 Norte 8 Norte 0 -- -- 70
2020-07-22 09:00:00 19.9 2 Norte 8 Noroeste 0 -- -- 77
2020-07-22 08:00:00 18.2 0 Calma 6 Norte 0 -- -- 83
2020-07-22 07:00:00 18.6 0 Calma 5 Sudoeste 0 -- -- 80
2020-07-22 06:00:00 18.9 2 Sudeste 5 Sudeste 0 -- -- 78
2020-07-22 05:00:00 19.6 0 Calma 10 Norte 0 -- -- 75
2020-07-22 04:00:00 20.1 0 Calma 5 Noroeste 0 -- -- 73
2020-07-22 03:00:00 20.5 2 Sudeste 12 Noroeste 0 -- -- 72
2020-07-22 02:00:00 20.3 2 Sur 8 Norte 0 -- -- 73
2020-07-22 01:00:00 20.2 0 Calma 4 Este 0 -- -- 73
2020-07-22 00:00:00 20.7 0 Calma 4 Sudeste 0 -- -- 72
2020-07-21 23:00:00 22 0 Calma 5 Sudeste 0 -- -- 67
2020-07-21 22:00:00 24.1 0 Calma 12 Sudoeste 0 -- -- 59
2020-07-21 21:00:00 28.2 5 Sur 17 Sudoeste 0 -- -- 43
2020-07-21 20:00:00 30.7 7 Sudoeste 21 Sudoeste 0 -- -- 38
2020-07-21 19:00:00 31.8 10 Sudoeste 23 Sudoeste 0 -- -- 35
2020-07-21 18:00:00 32.7 12 Sudoeste 24 Sudoeste 0 -- -- 34
2020-07-21 17:00:00 33.1 11 Sudoeste 26 Sudoeste 0 -- -- 36
2020-07-21 16:00:00 33.1 8 Sudoeste 23 Sudoeste 0 -- -- 35
2020-07-21 15:00:00 32.6 11 Sudoeste 24 Sudoeste 0 -- -- 37
2020-07-21 14:00:00 31.6 11 Sudoeste 23 Sudoeste 0 -- -- 41
2020-07-21 13:00:00 29.7 4 Sudoeste 12 Sur 0 -- -- 44
2020-07-21 12:00:00 26.4 2 Sudeste 6 Norte 0 -- -- 52
2020-07-21 11:00:00 22.6 2 Nordeste 8 Noroeste 0 -- -- 64
2020-07-21 10:00:00 18.2 3 Norte 9 Norte 0 -- -- 75
2020-07-21 09:00:00 15.7 2 Norte 10 Norte 0 -- -- 84
2020-07-21 08:00:00 13.8 2 Noroeste 6 Nordeste 0 -- -- 91
2020-07-21 07:00:00 13.5 0 Calma 3 Norte 0 -- -- 90
2020-07-21 06:00:00 13.6 2 Oeste 7 Este 0 -- -- 91
2020-07-21 05:00:00 13.9 0 Calma 6 Norte 0 -- -- 89
2020-07-21 04:00:00 14.3 0 Calma 7 Norte 0 -- -- 87
2020-07-21 03:00:00 14.8 0 Calma 7 Este 0 -- -- 86
2020-07-21 02:00:00 15.1 0 Calma 7 Norte 0 -- -- 86
2020-07-21 01:00:00 15.9 2 Noroeste 11 Nordeste 0 -- -- 83
2020-07-21 00:00:00 17.1 4 Nordeste 12 Norte 0 -- -- 80
2020-07-20 23:00:00 18.1 4 Norte 15 Noroeste 0 -- -- 76
2020-07-20 22:00:00 18.9 2 Sudeste 8 Noroeste 0 -- -- 74
2020-07-20 21:00:00 20.6 3 Noroeste 29 Norte 0 -- -- 66
2020-07-20 20:00:00 22.9 10 Norte 21 Norte 0 -- -- 57
2020-07-20 19:00:00 24.8 6 Noroeste 33 Norte 0 -- -- 49
2020-07-20 18:00:00 30.4 6 Noroeste 29 Sudoeste 0 -- -- 43
2020-07-20 17:00:00 31.3 14 Sudoeste 33 Sudoeste 0 -- -- 40
2020-07-20 16:00:00 31.5 14 Sudoeste 30 Sudoeste 0 -- -- 40
2020-07-20 15:00:00 30.7 16 Sudoeste 31 Sudoeste 0 -- -- 43
2020-07-20 14:00:00 30.1 15 Sudoeste 29 Sudoeste 0 -- -- 47
2020-07-20 13:00:00 29.2 12 Sudoeste 26 Sudoeste 0 -- -- 51
2020-07-20 12:00:00 27.2 7 Sur 16 Sudoeste 0 -- -- 53
2020-07-20 11:00:00 23.6 0 Calma 5 Norte 0 -- -- 61
2020-07-20 10:00:00 19.3 3 Norte 7 Norte 0 -- -- 72
2020-07-20 09:00:00 17 2 Nordeste 8 Nordeste 0 -- -- 81
2020-07-20 08:00:00 15.7 0 Calma 7 Noroeste 0 -- -- 84
2020-07-20 07:00:00 15.5 0 Calma 8 Norte 0 -- -- 84
2020-07-20 06:00:00 15.5 0 Calma 4 Sudeste 0 -- -- 83
2020-07-20 05:00:00 16.1 2 Este 5 Oeste 0 -- -- 80
2020-07-20 04:00:00 16.2 0 Calma 6 Norte 0 -- -- 80
2020-07-20 03:00:00 16.7 2 Sudeste 5 Norte 0 -- -- 80
2020-07-20 02:00:00 17.5 0 Calma 3 Este 0 -- -- 76
2020-07-20 01:00:00 17.8 0 Calma 4 Sudeste 0 -- -- 75
2020-07-20 00:00:00 18.7 0 Calma 4 Sudeste 0 -- -- 72
2020-07-19 23:00:00 20.2 0 Calma 4 Este 0 -- -- 69
2020-07-19 22:00:00 21.8 0 Calma 4 Sudeste 0 -- -- 64
2020-07-19 21:00:00 25.3 0 Calma 7 Sudeste 0 -- -- 55
2020-07-19 20:00:00 29.8 3 Oeste 22 Sudoeste 0 -- -- 43
2020-07-19 19:00:00 30.2 9 Sudoeste 22 Sudoeste 0 -- -- 38
2020-07-19 18:00:00 31.3 14 Sudoeste 26 Sudoeste 0 -- -- 37
2020-07-19 17:00:00 31.8 5 Sudoeste 23 Sudoeste 0 -- -- 40
2020-07-19 16:00:00 31.5 10 Sudoeste 23 Sudoeste 0 -- -- 38
2020-07-19 15:00:00 30.8 7 Sudoeste 19 Oeste 0 -- -- 39
2020-07-19 14:00:00 30.2 8 Sudoeste 21 Sudoeste 0 -- -- 39
2020-07-19 13:00:00 28.7 8 Sudoeste 19 Sudoeste 0 -- -- 44
2020-07-19 12:00:00 25.6 3 Norte 8 Noroeste 0 -- -- 54
2020-07-19 11:00:00 21.9 0 Calma 6 Norte 0 -- -- 62
2020-07-19 10:00:00 17.5 0 Calma 8 Norte 0 -- -- 77
2020-07-19 09:00:00 15.1 2 Norte 7 Noroeste 0 -- -- 85
2020-07-19 08:00:00 13.6 0 Calma 6 Norte 0 -- -- 90
2020-07-19 07:00:00 13 0 Calma 4 Sudoeste 0 -- -- 91
2020-07-19 06:00:00 13.6 0 Calma 3 Sudeste 0 -- -- 89
2020-07-19 05:00:00 13.9 0 Calma 3 Sur 0 -- -- 88
2020-07-19 04:00:00 14.7 0 Calma 3 Sudeste 0 -- -- 86
2020-07-19 03:00:00 15.5 0 Calma 4 Sur 0 -- -- 83
2020-07-19 02:00:00 16.4 0 Calma 2 Norte 0 -- -- 81
2020-07-19 01:00:00 17 0 Calma 3 Sudeste 0 -- -- 78
2020-07-19 00:00:00 18.3 0 Calma 2 Este 0 -- -- 76
2020-07-18 23:00:00 19.7 0 Calma 5 Sudeste 0 -- -- 72
2020-07-18 22:00:00 22.2 0 Calma 7 Oeste 0 -- -- 64
2020-07-18 21:00:00 25.9 4 Sudoeste 18 Sudoeste 0 -- -- 52
2020-07-18 20:00:00 28.9 8 Sudoeste 21 Sudoeste 0 -- -- 44
2020-07-18 19:00:00 29.5 7 Sur 21 Oeste 0 -- -- 45
2020-07-18 18:00:00 30.5 9 Sudoeste 21 Sudoeste 0 -- -- 44
2020-07-18 17:00:00 30.7 9 Sudoeste 22 Sur 0 -- -- 40
2020-07-18 16:00:00 30.3 9 Sur 27 Sudoeste 0 -- -- 40
2020-07-18 15:00:00 29.7 10 Sudoeste 25 Sudoeste 0 -- -- 37
2020-07-18 14:00:00 28.6 12 Sudoeste 24 Sudoeste 0 -- -- 37
2020-07-18 13:00:00 27 11 Sudoeste 18 Sur 0 -- -- 43
2020-07-18 12:00:00 23.8 3 Noroeste 9 Noroeste 0 -- -- 51
2020-07-18 11:00:00 19.9 3 Noroeste 6 Norte 0 -- -- 55
2020-07-18 10:00:00 15.1 2 Norte 9 Noroeste 0 -- -- 68
2020-07-18 09:00:00 12.7 3 Norte 9 Norte 0 -- -- 78
2020-07-18 08:00:00 11 0 Calma 6 Oeste 0 -- -- 86
2020-07-18 07:00:00 11 0 Calma 6 Sur 0 -- -- 84
2020-07-18 06:00:00 11.3 0 Calma 4 Sudeste 0 -- -- 83
2020-07-18 05:00:00 12.2 2 Nordeste 6 Sudoeste 0 -- -- 81
2020-07-18 04:00:00 12.9 0 Calma 4 Norte 0 -- -- 77
2020-07-18 03:00:00 13.6 0 Calma 4 Este 0 -- -- 75
2020-07-18 02:00:00 14.5 0 Calma 5 Oeste 0 -- -- 72
2020-07-18 01:00:00 15.6 2 Noroeste 5 Sudeste 0 -- -- 70
2020-07-18 00:00:00 16.8 0 Calma 4 Oeste 0 -- -- 64
2020-07-17 23:00:00 18.4 0 Calma 8 Nordeste 0 -- -- 59
2020-07-17 22:00:00 19.5 2 Oeste 9 Noroeste 0 -- -- 56
2020-07-17 21:00:00 21.3 3 Este 8 Sudoeste 0 -- -- 64
2020-07-17 20:00:00 25.9 4 Sur 19 Sudoeste 0 -- -- 51
2020-07-17 19:00:00 27.1 12 Sudoeste 23 Sur 0 -- -- 48
2020-07-17 18:00:00 28 8 Sudoeste 27 Sudoeste 0 -- -- 47
2020-07-17 17:00:00 27.8 14 Sudoeste 27 Sudoeste 0 -- -- 48
2020-07-17 16:00:00 28.1 11 Sudoeste 26 Sudoeste 0 -- -- 48
2020-07-17 15:00:00 27.6 10 Sudoeste 26 Sudoeste 0 -- -- 50
2020-07-17 14:00:00 26.8 12 Sudoeste 24 Sudoeste 0 -- -- 46
2020-07-17 13:00:00 25.6 12 Sudoeste 23 Sudoeste 0 -- -- 51
2020-07-17 12:00:00 23.8 6 Sudoeste 13 Sudoeste 0 -- -- 54
2020-07-17 11:00:00 20.3 3 Oeste 8 Norte 0 -- -- 66
2020-07-17 10:00:00 15.5 3 Nordeste 7 Norte 0 -- -- 75
2020-07-17 09:00:00 13.3 3 Norte 9 Norte 0 -- -- 88
2020-07-17 08:00:00 11.8 2 Nordeste 6 Norte 0 -- -- 93
2020-07-17 07:00:00 11.9 0 Calma 3 Sur 0 -- -- 93
2020-07-17 06:00:00 12.7 0 Calma 5 Sudoeste 0 -- -- 92
2020-07-17 05:00:00 13.4 0 Calma 5 Este 0 -- -- 91
2020-07-17 04:00:00 14.2 2 Nordeste 5 Sudeste 0 -- -- 90
2020-07-17 03:00:00 14.7 0 Calma 3 Norte 0 -- -- 89
2020-07-17 02:00:00 15.2 0 Calma 3 Nordeste 0 -- -- 87
2020-07-17 01:00:00 16.1 0 Calma 3 Nordeste 0 -- -- 84
2020-07-17 00:00:00 17.3 0 Calma 3 Este 0 -- -- 82
2020-07-16 23:00:00 18.7 0 Calma 3 Este 0 -- -- 77
2020-07-16 22:00:00 20.3 0 Calma 4 Nordeste 0 -- -- 72
2020-07-16 21:00:00 23.7 2 Norte 14 Oeste 0 -- -- 60
2020-07-16 20:00:00 26.4 4 Sudoeste 20 Sudoeste 0 -- -- 51
2020-07-16 19:00:00 27.1 8 Sudoeste 20 Sudoeste 0 -- -- 51
2020-07-16 18:00:00 27.9 9 Sudoeste 24 Sudoeste 0 -- -- 50
2020-07-16 17:00:00 28 9 Sur 22 Sudoeste 0 -- -- 50
2020-07-16 16:00:00 27.8 11 Sudoeste 27 Sudoeste 0 -- -- 51
2020-07-16 15:00:00 26.8 12 Sudoeste 24 Sudoeste 0 -- -- 51
2020-07-16 14:00:00 25.8 13 Sudoeste 27 Sudoeste 0 -- -- 50
2020-07-16 13:00:00 24.7 12 Sudoeste 24 Sudoeste 0 -- -- 52
2020-07-16 12:00:00 23 6 Sudoeste 19 Sudoeste 0 -- -- 56
2020-07-16 11:00:00 19.9 2 Oeste 8 Norte 0 -- -- 66
2020-07-16 10:00:00 15.2 0 Calma 8 Norte 0 -- -- 78
2020-07-16 09:00:00 12.8 2 Norte 8 Norte 0 -- -- 89
2020-07-16 08:00:00 11.3 0 Calma 6 Norte 0 -- -- 94
2020-07-16 07:00:00 11.1 0 Calma 4 Norte 0 -- -- 94
2020-07-16 06:00:00 11.4 0 Calma 4 Sudoeste 0 -- -- 92
2020-07-16 05:00:00 11.7 0 Calma 3 Sudoeste 0 -- -- 91
2020-07-16 04:00:00 12.2 0 Calma 4 Norte 0 -- -- 90
2020-07-16 03:00:00 12.8 2 Sudoeste 8 Norte 0 -- -- 87
2020-07-16 02:00:00 13.2 0 Calma 6 Noroeste 0 -- -- 87
2020-07-16 01:00:00 14 0 Calma 7 Sudoeste 0 -- -- 83
2020-07-16 00:00:00 14.7 0 Calma 6 Oeste 0 -- -- 81
2020-07-15 23:00:00 15.8 0 Calma 8 Norte 0 -- -- 76
2020-07-15 22:00:00 16.9 2 Sudeste 4 Sudeste 0 -- -- 76
2020-07-15 21:00:00 19.2 0 Calma 6 Norte 0 -- -- 74
2020-07-15 20:00:00 24.2 3 Oeste 9 Sudoeste 0 -- -- 64
2020-07-15 19:00:00 22.6 3 Sudoeste 7 Sudoeste 0 -- -- 65
2020-07-15 18:00:00 23.2 4 Sudoeste 13 Sudoeste 0 -- -- 62
2020-07-15 17:00:00 21.9 4 Sudoeste 12 Sur 0 -- -- 61
2020-07-15 16:00:00 21.2 5 Sur 24 Sudoeste 0 -- -- 61
2020-07-15 15:00:00 22.9 10 Sudoeste 32 Sudoeste 0 -- -- 57
2020-07-15 14:00:00 23.2 13 Sudoeste 25 Sudoeste 0 -- -- 60
2020-07-15 13:00:00 22.7 9 Sudoeste 26 Sudoeste 0 -- -- 62
2020-07-15 12:00:00 20.5 8 Sudoeste 17 Sudoeste 0 -- -- 69
2020-07-15 11:00:00 17.7 0 Calma 4 Sudoeste 0 -- -- 80
2020-07-15 10:00:00 15.4 0 Calma 4 Norte 0 -- -- 85
2020-07-15 09:00:00 13.6 0 Calma 5 Sudoeste 0 -- -- 95
2020-07-15 08:00:00 12.6 0 Calma 4 Sudoeste 0 -- -- 99
2020-07-15 07:00:00 12 0 Calma 3 Sur 0 -- -- 98
2020-07-15 06:00:00 12.1 0 Calma 4 Sudeste 0 -- -- 98
2020-07-15 05:00:00 12 0 Calma 8 Sudeste 0 -- -- 98
2020-07-15 04:00:00 12.3 2 Este 4 Este 0 -- -- 97
2020-07-15 03:00:00 12.9 0 Calma 4 Sudeste 0 -- -- 98
2020-07-15 02:00:00 13.2 0 Calma 4 Sur 0 -- -- 97
2020-07-15 01:00:00 13.7 2 Nordeste 5 Nordeste 0 -- -- 96
2020-07-15 00:00:00 14.5 0 Calma 4 Este 0 -- -- 97